createdAt,value
2022-09-07T00:01:07.815Z,23.52
2022-09-07T00:03:36.679Z,23.72
2022-09-07T00:06:07.571Z,23.66
2022-09-07T00:08:36.141Z,23.40
2022-09-07T00:11:09.096Z,23.49
2022-09-07T00:13:39.383Z,23.10
2022-09-07T00:16:09.441Z,22.80
2022-09-07T00:18:40.333Z,22.52
2022-09-07T00:21:13.249Z,22.56
2022-09-07T00:23:41.812Z,22.98
2022-09-07T00:26:13.388Z,22.75
2022-09-07T00:28:42.540Z,22.12
2022-09-07T00:31:12.281Z,22.73
2022-09-07T00:33:40.848Z,22.98
2022-09-07T00:36:09.362Z,22.92
2022-09-07T00:38:38.062Z,22.64
2022-09-07T00:41:06.864Z,22.84
2022-09-07T00:43:39.186Z,22.52
2022-09-07T00:46:10.754Z,22.83
2022-09-07T00:48:41.698Z,22.74
2022-09-07T00:51:13.375Z,22.14
2022-09-07T00:53:45.274Z,22.77
2022-09-07T00:56:14.588Z,23.00
2022-09-07T00:58:44.645Z,22.81
2022-09-07T01:01:13.276Z,22.93
2022-09-07T01:03:45.661Z,22.29
2022-09-07T01:06:17.629Z,22.90
2022-09-07T01:08:47.103Z,22.85
2022-09-07T01:11:15.570Z,23.12
2022-09-07T01:13:46.215Z,23.17
2022-09-07T01:16:24.766Z,22.82
2022-09-07T01:18:58.964Z,22.77
2022-09-07T01:21:28.574Z,22.91
2022-09-07T01:24:25.343Z,23.14
2022-09-07T01:27:29.428Z,23.02
2022-09-07T01:30:05.632Z,22.86
2022-09-07T01:32:44.909Z,23.23
2022-09-07T01:35:17.421Z,23.20
2022-09-07T01:37:56.347Z,23.24
2022-09-07T01:40:30.279Z,23.27
2022-09-07T01:43:02.929Z,23.12
2022-09-07T01:45:36.736Z,23.09
2022-09-07T01:48:07.391Z,22.55
2022-09-07T01:50:40.001Z,22.84
2022-09-07T01:53:15.270Z,22.78
2022-09-07T01:55:46.492Z,22.99
2022-09-07T01:58:19.077Z,23.43
2022-09-07T02:00:52.213Z,23.57
2022-09-07T02:03:24.490Z,23.83
2022-09-07T02:05:58.489Z,23.83
2022-09-07T02:08:29.111Z,23.77
2022-09-07T02:11:00.585Z,24.02
2022-09-07T02:13:34.332Z,23.92
2022-09-07T02:16:07.468Z,23.95
2022-09-07T02:18:38.771Z,23.77
2022-09-07T02:21:09.291Z,23.90
2022-09-07T02:23:38.616Z,23.93
2022-09-07T02:26:08.812Z,23.80
2022-09-07T02:28:38.109Z,23.96
2022-09-07T02:31:08.827Z,23.28
2022-09-07T02:33:37.601Z,23.72
2022-09-07T02:36:06.866Z,23.41
2022-09-07T02:38:36.382Z,23.37
2022-09-07T02:41:05.927Z,23.29
2022-09-07T02:43:34.657Z,23.53
2022-09-07T02:46:15.141Z,23.55
2022-09-07T02:48:44.323Z,23.91
2022-09-07T02:51:16.803Z,23.83
2022-09-07T02:53:55.910Z,23.56
2022-09-07T02:56:33.866Z,23.78
2022-09-07T02:59:07.984Z,24.12
2022-09-07T03:01:44.567Z,23.84
2022-09-07T03:04:15.297Z,24.02
2022-09-07T03:06:45.604Z,23.58
2022-09-07T03:09:17.911Z,23.61
2022-09-07T03:11:46.440Z,24.09
2022-09-07T03:14:16.244Z,23.81
2022-09-07T03:16:46.323Z,23.92
2022-09-07T03:19:14.739Z,23.85
2022-09-07T03:21:43.279Z,23.33
2022-09-07T03:24:11.921Z,23.95
2022-09-07T03:26:42.866Z,23.95
2022-09-07T03:29:11.277Z,23.71
2022-09-07T03:31:39.840Z,24.09
2022-09-07T03:34:09.926Z,23.74
2022-09-07T03:36:38.415Z,23.74
2022-09-07T03:39:07.452Z,23.69
2022-09-07T03:41:35.993Z,24.07
2022-09-07T03:44:05.553Z,24.19
2022-09-07T03:46:34.329Z,24.10
2022-09-07T03:49:02.835Z,23.74
2022-09-07T03:51:32.581Z,23.45
2022-09-07T03:54:00.983Z,23.87
2022-09-07T03:56:29.352Z,23.17
2022-09-07T03:58:57.919Z,23.29
2022-09-07T04:01:27.158Z,23.30
2022-09-07T04:04:02.699Z,23.38
2022-09-07T04:06:33.362Z,23.51
2022-09-07T04:09:03.219Z,23.51
2022-09-07T04:11:31.900Z,23.42
2022-09-07T04:14:00.355Z,23.48
2022-09-07T04:16:29.308Z,23.93
2022-09-07T04:18:59.231Z,24.07
2022-09-07T04:21:28.992Z,23.78
2022-09-07T04:23:59.102Z,23.78
2022-09-07T04:26:29.029Z,23.67
2022-09-07T04:28:57.425Z,23.89
2022-09-07T04:31:26.314Z,23.80
2022-09-07T04:33:55.939Z,24.04
2022-09-07T04:36:25.811Z,24.29
2022-09-07T04:38:59.708Z,24.15
2022-09-07T04:41:28.815Z,24.51
2022-09-07T04:43:58.429Z,24.71
2022-09-07T04:46:28.146Z,24.58
2022-09-07T04:48:57.654Z,24.35
2022-09-07T04:51:27.957Z,24.53
2022-09-07T04:53:59.127Z,23.98
2022-09-07T04:56:27.817Z,24.06
2022-09-07T04:58:56.695Z,23.79
2022-09-07T05:01:26.170Z,24.19
2022-09-07T05:03:54.746Z,24.07
2022-09-07T05:06:23.470Z,24.01
2022-09-07T05:08:54.112Z,24.36
2022-09-07T05:11:29.115Z,24.15
2022-09-07T05:14:00.447Z,23.92
2022-09-07T05:16:29.697Z,23.76
2022-09-07T05:18:59.511Z,24.19
2022-09-07T05:21:29.802Z,24.68
2022-09-07T05:23:59.277Z,24.61
2022-09-07T05:26:30.161Z,24.58
2022-09-07T05:31:51.163Z,23.95
2022-09-07T05:34:35.025Z,24.56
2022-09-07T05:37:03.810Z,25.00
2022-09-07T05:39:32.291Z,24.95
2022-09-07T05:42:02.100Z,25.02
2022-09-07T05:44:47.438Z,25.14
2022-09-07T05:47:15.927Z,24.96
2022-09-07T05:49:44.353Z,25.24
2022-09-07T05:52:12.915Z,25.70
2022-09-07T05:54:41.456Z,25.68
2022-09-07T05:57:13.550Z,26.01
2022-09-07T05:59:41.988Z,25.62
2022-09-07T06:02:12.398Z,25.80
2022-09-07T06:04:40.942Z,25.45
2022-09-07T06:07:21.681Z,25.93
2022-09-07T06:12:43.370Z,25.69
2022-09-07T06:15:14.118Z,25.87
2022-09-07T06:17:42.533Z,25.85
2022-09-07T06:20:11.626Z,25.48
2022-09-07T06:22:40.174Z,25.30
2022-09-07T06:25:09.344Z,25.42
2022-09-07T06:27:37.749Z,25.26
2022-09-07T06:30:08.500Z,25.02
2022-09-07T06:32:45.560Z,25.26
2022-09-07T06:35:14.841Z,24.70
2022-09-07T06:37:43.356Z,25.32
2022-09-07T06:40:12.674Z,25.53
2022-09-07T06:42:41.138Z,25.55
2022-09-07T06:45:11.735Z,25.72
2022-09-07T06:47:41.251Z,24.49
2022-09-07T06:50:10.739Z,25.63
2022-09-07T06:55:28.775Z,25.53
2022-09-07T06:57:57.232Z,25.39
2022-09-07T07:00:26.957Z,25.48
2022-09-07T07:02:55.442Z,25.29
2022-09-07T07:05:23.862Z,25.45
2022-09-07T07:07:52.219Z,25.89
2022-09-07T07:10:24.563Z,26.14
2022-09-07T07:12:57.451Z,26.46
2022-09-07T07:15:29.449Z,26.68
2022-09-07T07:18:13.482Z,26.18
2022-09-07T07:20:46.837Z,27.28
2022-09-07T07:23:15.370Z,27.56
2022-09-07T07:25:43.789Z,27.23
2022-09-07T07:31:07.354Z,26.81
2022-09-07T07:33:39.756Z,27.24
2022-09-07T07:36:10.470Z,26.92
2022-09-07T07:44:20.274Z,26.79
2022-09-07T07:46:50.898Z,27.45
2022-09-07T07:49:19.784Z,27.67
2022-09-07T07:54:37.882Z,28.31
2022-09-07T07:57:06.837Z,28.42
2022-09-07T07:59:35.278Z,27.85
2022-09-07T08:02:05.881Z,28.55
2022-09-07T08:04:35.086Z,29.09
2022-09-07T08:07:09.573Z,28.53
2022-09-07T08:09:39.810Z,28.02
2022-09-07T08:12:08.489Z,29.05
2022-09-07T08:14:40.831Z,28.58
2022-09-07T08:17:12.243Z,28.81
2022-09-07T08:19:41.323Z,29.33
2022-09-07T08:22:10.679Z,28.47
2022-09-07T08:24:38.976Z,29.41
2022-09-07T08:27:07.490Z,28.77
2022-09-07T08:29:36.652Z,29.18
2022-09-07T08:32:06.488Z,29.14
2022-09-07T08:34:38.273Z,28.82
2022-09-07T08:37:06.506Z,28.65
2022-09-07T08:39:34.812Z,29.63
2022-09-07T08:42:17.200Z,28.98
2022-09-07T08:44:47.555Z,29.05
2022-09-07T08:47:22.978Z,29.43
2022-09-07T08:49:55.949Z,28.86
2022-09-07T08:52:27.415Z,28.99
2022-09-07T08:55:04.797Z,29.15
2022-09-07T08:57:36.730Z,29.42
2022-09-07T09:00:08.055Z,28.75
2022-09-07T09:02:42.505Z,29.23
2022-09-07T09:05:23.284Z,29.17
2022-09-07T09:08:01.030Z,28.35
2022-09-07T09:10:35.990Z,29.53
2022-09-07T09:13:13.671Z,29.26
2022-09-07T09:15:58.297Z,29.14
2022-09-07T09:18:40.760Z,29.40
2022-09-07T09:21:14.162Z,30.08
2022-09-07T09:23:43.719Z,30.20
2022-09-07T09:26:15.692Z,30.32
2022-09-07T09:28:43.950Z,30.41
2022-09-07T09:31:18.109Z,29.74
2022-09-07T09:34:11.139Z,29.93
2022-09-07T09:36:46.124Z,29.95
2022-09-07T09:39:32.013Z,29.71
2022-09-07T09:42:14.337Z,30.11
2022-09-07T09:44:43.882Z,30.29
2022-09-07T09:47:30.152Z,29.63
2022-09-07T09:50:01.045Z,30.15
2022-09-07T09:52:40.357Z,29.53
2022-09-07T09:55:34.339Z,29.68
2022-09-07T10:04:02.664Z,31.11
2022-09-07T10:06:33.183Z,30.92
2022-09-07T10:09:03.355Z,31.52
2022-09-07T10:14:33.410Z,31.08
2022-09-07T10:17:02.399Z,31.77
2022-09-07T10:19:36.043Z,31.43
2022-09-07T10:22:22.213Z,30.90
2022-09-07T10:24:52.182Z,30.86
2022-09-07T10:27:25.221Z,31.11
2022-09-07T10:29:53.442Z,30.58
2022-09-07T10:32:27.877Z,31.64
2022-09-07T10:35:05.250Z,31.23
2022-09-07T10:37:42.340Z,31.75
2022-09-07T10:40:21.905Z,31.77
2022-09-07T10:46:00.359Z,31.90
2022-09-07T10:48:34.640Z,31.11
2022-09-07T10:51:13.798Z,31.67
2022-09-07T10:53:46.988Z,32.31
2022-09-07T10:56:22.532Z,32.06
2022-09-07T10:59:02.206Z,31.73
2022-09-07T11:01:40.407Z,32.62
2022-09-07T11:04:23.226Z,32.57
2022-09-07T11:06:54.143Z,32.17
2022-09-07T11:09:42.113Z,33.33
2022-09-07T11:12:16.620Z,34.06
2022-09-07T11:14:50.107Z,32.34
2022-09-07T11:17:21.890Z,32.83
2022-09-07T11:19:54.874Z,32.56
2022-09-07T11:22:31.229Z,32.47
2022-09-07T11:27:57.621Z,32.89
2022-09-07T11:30:28.512Z,32.88
2022-09-07T11:33:03.204Z,33.83
2022-09-07T11:35:36.261Z,33.28
2022-09-07T11:38:12.258Z,32.83
2022-09-07T11:40:43.918Z,32.63
2022-09-07T11:43:19.017Z,32.50
2022-09-07T11:45:50.625Z,32.65
2022-09-07T11:48:21.492Z,32.53
2022-09-07T11:50:51.784Z,32.96
2022-09-07T11:53:22.750Z,33.13
2022-09-07T11:55:56.054Z,33.02
2022-09-07T11:58:44.157Z,33.23
2022-09-07T12:01:21.500Z,34.36
2022-09-07T12:04:16.463Z,33.41
2022-09-07T12:06:55.902Z,33.61
2022-09-07T12:09:38.002Z,34.17
2022-09-07T12:12:21.112Z,33.84
2022-09-07T12:14:59.222Z,32.68
2022-09-07T12:17:48.963Z,33.45
2022-09-07T12:20:19.254Z,34.02
2022-09-07T12:23:04.867Z,34.98
2022-09-07T12:25:35.094Z,35.28
2022-09-07T12:28:03.390Z,35.72
2022-09-07T12:31:04.340Z,34.45
2022-09-07T12:33:34.877Z,34.72
2022-09-07T12:36:04.040Z,35.67
2022-09-07T12:39:21.446Z,35.19
2022-09-07T12:42:31.753Z,35.33
2022-09-07T12:44:40.835Z,34.09
2022-09-07T12:47:27.699Z,33.76
2022-09-07T12:50:21.914Z,34.09
2022-09-07T12:53:11.789Z,35.10
2022-09-07T12:59:00.162Z,35.84
2022-09-07T13:01:37.939Z,36.17
2022-09-07T13:04:25.714Z,34.45
2022-09-07T13:07:18.818Z,34.44
2022-09-07T13:09:56.252Z,33.60
2022-09-07T13:15:35.494Z,34.69
2022-09-07T13:18:04.801Z,34.72
2022-09-07T13:20:39.642Z,34.86
2022-09-07T13:23:24.821Z,35.39
2022-09-07T13:25:55.962Z,35.53
2022-09-07T13:28:43.669Z,34.62
2022-09-07T13:31:32.341Z,34.80
2022-09-07T13:34:00.709Z,34.97
2022-09-07T13:36:37.572Z,34.67
2022-09-07T13:39:09.836Z,34.63
2022-09-07T13:41:43.044Z,34.44
2022-09-07T13:44:25.031Z,35.07
2022-09-07T13:47:13.153Z,35.34
2022-09-07T13:50:01.781Z,34.46
2022-09-07T13:52:44.896Z,35.61
2022-09-07T13:55:27.547Z,35.66
2022-09-07T13:58:05.501Z,35.43
2022-09-07T14:00:34.051Z,35.12
2022-09-07T14:03:06.206Z,35.31
2022-09-07T14:05:36.157Z,35.71
2022-09-07T14:08:05.515Z,35.60
2022-09-07T14:10:33.672Z,35.95
2022-09-07T14:13:08.350Z,34.75
2022-09-07T14:15:39.259Z,35.83
2022-09-07T14:18:12.618Z,36.73
2022-09-07T14:20:43.558Z,36.48
2022-09-07T14:23:17.178Z,36.03
2022-09-07T14:28:38.183Z,35.61
2022-09-07T14:31:07.268Z,35.78
2022-09-07T14:33:35.522Z,35.43
2022-09-07T14:36:23.307Z,35.85
2022-09-07T14:39:10.311Z,35.52
2022-09-07T14:41:40.561Z,36.18
2022-09-07T14:44:28.445Z,36.22
2022-09-07T14:46:57.519Z,35.60
2022-09-07T14:49:25.905Z,35.88
2022-09-07T14:51:55.242Z,36.29
2022-09-07T14:54:28.331Z,35.84
2022-09-07T14:57:07.926Z,35.16
2022-09-07T14:59:41.619Z,36.11
2022-09-07T15:02:24.906Z,36.33
2022-09-07T15:05:15.935Z,35.51
2022-09-07T15:07:47.405Z,35.51
2022-09-07T15:10:27.789Z,35.41
2022-09-07T15:12:57.603Z,34.85
2022-09-07T15:15:27.683Z,34.84
2022-09-07T15:18:03.097Z,34.77
2022-09-07T15:20:35.920Z,34.46
2022-09-07T15:23:05.867Z,34.45
2022-09-07T15:25:35.262Z,34.91
2022-09-07T15:28:04.040Z,35.10
2022-09-07T15:30:33.504Z,35.45
2022-09-07T15:33:02.213Z,35.14
2022-09-07T15:35:30.477Z,35.80
2022-09-07T15:38:03.234Z,34.73
2022-09-07T15:40:56.211Z,35.36
2022-09-07T15:43:29.925Z,34.26
2022-09-07T15:45:58.271Z,33.93
2022-09-07T15:48:26.671Z,34.32
2022-09-07T15:51:03.392Z,33.51
2022-09-07T15:56:22.497Z,34.32
2022-09-07T15:58:52.520Z,34.02
2022-09-07T16:04:12.722Z,34.06
2022-09-07T16:06:41.162Z,33.90
2022-09-07T16:09:09.637Z,33.43
2022-09-07T16:11:39.285Z,33.26
2022-09-07T16:14:11.690Z,33.38
2022-09-07T16:19:28.496Z,32.98
2022-09-07T16:21:57.604Z,33.18
2022-09-07T16:24:27.827Z,32.73
2022-09-07T16:26:57.195Z,32.70
2022-09-07T16:29:25.384Z,32.11
2022-09-07T16:34:41.817Z,32.97
2022-09-07T16:37:10.007Z,33.07
2022-09-07T16:39:38.284Z,32.72
2022-09-07T16:42:08.952Z,32.75
2022-09-07T16:44:37.219Z,32.78
2022-09-07T16:47:05.600Z,32.76
2022-09-07T16:49:33.826Z,32.69
2022-09-07T16:52:02.040Z,32.61
2022-09-07T16:54:30.854Z,32.83
2022-09-07T16:57:00.730Z,32.88
2022-09-07T16:59:31.135Z,32.74
2022-09-07T17:01:59.401Z,32.52
2022-09-07T17:04:27.911Z,32.50
2022-09-07T17:06:56.566Z,32.46
2022-09-07T17:09:26.707Z,32.45
2022-09-07T17:11:54.782Z,31.20
2022-09-07T17:14:23.074Z,30.63
2022-09-07T17:16:52.749Z,30.76
2022-09-07T17:19:29.743Z,30.88
2022-09-07T17:21:59.726Z,31.39
2022-09-07T17:24:29.609Z,31.56
2022-09-07T17:27:00.167Z,30.18
2022-09-07T17:29:30.477Z,30.26
2022-09-07T17:34:51.387Z,30.67
2022-09-07T17:37:19.924Z,30.80
2022-09-07T17:39:48.320Z,30.61
2022-09-07T17:42:17.043Z,29.31
2022-09-07T17:44:45.338Z,29.38
2022-09-07T17:47:14.926Z,29.19
2022-09-07T17:49:43.182Z,29.75
2022-09-07T17:52:11.447Z,30.18
2022-09-07T17:54:39.845Z,29.73
2022-09-07T17:57:08.061Z,29.60
2022-09-07T18:02:26.025Z,29.31
2022-09-07T18:04:54.347Z,29.50
2022-09-07T18:07:22.756Z,29.55
2022-09-07T18:09:51.030Z,29.42
2022-09-07T18:12:19.257Z,29.84
2022-09-07T18:14:47.560Z,29.84
2022-09-07T18:17:15.862Z,29.77
2022-09-07T18:19:45.438Z,29.60
2022-09-07T18:22:15.214Z,29.49
2022-09-07T18:24:43.815Z,28.99
2022-09-07T18:27:12.034Z,28.05
2022-09-07T18:29:40.475Z,27.88
2022-09-07T18:32:09.850Z,28.03
2022-09-07T18:34:40.732Z,28.83
2022-09-07T18:37:12.208Z,28.88
2022-09-07T18:39:41.555Z,28.23
2022-09-07T18:42:10.309Z,27.93
2022-09-07T18:47:29.530Z,28.50
2022-09-07T18:49:58.511Z,28.69
2022-09-07T18:55:17.331Z,28.53
2022-09-07T18:57:45.563Z,28.48
2022-09-07T19:00:14.824Z,28.39
2022-09-07T19:02:43.258Z,28.24
2022-09-07T19:08:03.503Z,27.91
2022-09-07T19:10:35.289Z,27.74
2022-09-07T19:13:03.549Z,27.74
2022-09-07T19:15:37.182Z,27.68
2022-09-07T19:18:07.294Z,27.76
2022-09-07T19:20:36.024Z,27.69
2022-09-07T19:23:05.713Z,27.61
2022-09-07T19:25:34.007Z,27.57
2022-09-07T19:28:02.295Z,27.52
2022-09-07T19:30:30.552Z,27.47
2022-09-07T19:33:03.525Z,27.46
2022-09-07T19:35:36.269Z,27.39
2022-09-07T19:38:05.993Z,26.96
2022-09-07T19:40:34.373Z,27.11
2022-09-07T19:43:02.613Z,27.31
2022-09-07T19:45:30.861Z,27.29
2022-09-07T19:47:59.267Z,27.27
2022-09-07T19:50:27.853Z,27.26
2022-09-07T19:52:57.061Z,27.19
2022-09-07T19:55:27.437Z,27.12
2022-09-07T19:57:55.623Z,26.96
2022-09-07T20:00:24.647Z,26.76
2022-09-07T20:02:54.237Z,26.60
2022-09-07T20:05:23.724Z,26.27
2022-09-07T20:07:51.947Z,26.45
2022-09-07T20:10:20.530Z,26.37
2022-09-07T20:12:50.256Z,26.33
2022-09-07T20:15:18.541Z,26.20
2022-09-07T20:17:47.392Z,26.16
2022-09-07T20:20:15.753Z,26.15
2022-09-07T20:22:43.992Z,26.03
2022-09-07T20:25:13.388Z,25.79
2022-09-07T20:27:41.944Z,25.76
2022-09-07T20:30:12.844Z,26.07
2022-09-07T20:32:41.086Z,26.11
2022-09-07T20:35:10.788Z,26.22
2022-09-07T20:37:39.011Z,26.23
2022-09-07T20:40:08.467Z,26.24
2022-09-07T20:42:36.756Z,26.25
2022-09-07T20:45:05.626Z,26.28
2022-09-07T20:47:35.445Z,25.96
2022-09-07T20:50:03.706Z,25.94
2022-09-07T20:52:31.926Z,26.15
2022-09-07T20:55:00.651Z,26.04
2022-09-07T20:57:29.006Z,25.91
2022-09-07T20:59:57.309Z,25.90
2022-09-07T21:02:25.669Z,25.66
2022-09-07T21:04:55.321Z,25.83
2022-09-07T21:07:24.284Z,25.87
2022-09-07T21:09:52.613Z,25.92
2022-09-07T21:12:20.899Z,25.94
2022-09-07T21:14:49.084Z,25.93
2022-09-07T21:17:17.383Z,25.84
2022-09-07T21:19:45.666Z,25.71
2022-09-07T21:22:15.332Z,25.46
2022-09-07T21:24:43.601Z,25.36
2022-09-07T21:27:11.907Z,25.20
2022-09-07T21:29:40.159Z,25.23
2022-09-07T21:32:08.429Z,25.19
2022-09-07T21:34:36.719Z,25.14
2022-09-07T21:37:04.951Z,25.14
2022-09-07T21:39:34.648Z,25.21
2022-09-07T21:42:02.936Z,25.12
2022-09-07T21:44:31.179Z,25.00
2022-09-07T21:46:59.630Z,25.15
2022-09-07T21:49:27.920Z,25.24
2022-09-07T21:51:56.155Z,25.09
2022-09-07T21:54:24.377Z,25.37
2022-09-07T21:56:54.245Z,25.27
2022-09-07T21:59:22.522Z,25.44
2022-09-07T22:01:50.885Z,25.38
2022-09-07T22:04:19.266Z,25.29
2022-09-07T22:06:47.560Z,25.29
2022-09-07T22:09:16.070Z,25.15
2022-09-07T22:11:46.227Z,24.99
2022-09-07T22:14:16.696Z,24.81
2022-09-07T22:16:45.266Z,24.17
2022-09-07T22:19:13.542Z,24.42
2022-09-07T22:21:41.818Z,24.73
2022-09-07T22:24:12.670Z,24.42
2022-09-07T22:26:41.051Z,24.53
2022-09-07T22:29:11.713Z,24.33
2022-09-07T22:31:42.049Z,24.29
2022-09-07T22:34:10.388Z,24.25
2022-09-07T22:36:40.270Z,24.80
2022-09-07T22:39:11.694Z,24.93
2022-09-07T22:41:41.692Z,25.01
2022-09-07T22:44:12.450Z,25.08
2022-09-07T22:46:43.792Z,25.15
2022-09-07T22:49:13.110Z,25.08
2022-09-07T22:51:41.370Z,24.77
2022-09-07T22:54:09.624Z,23.19
2022-09-07T22:56:38.330Z,22.83
2022-09-07T22:59:08.819Z,22.78
2022-09-07T23:01:36.999Z,22.81
2022-09-07T23:04:07.143Z,23.15
2022-09-07T23:06:37.034Z,23.35
2022-09-07T23:09:07.099Z,23.99
2022-09-07T23:11:35.366Z,24.28
2022-09-07T23:14:05.471Z,24.33
2022-09-07T23:16:33.739Z,24.68
2022-09-07T23:19:02.057Z,24.90
2022-09-07T23:21:31.641Z,25.12
2022-09-07T23:24:00.754Z,24.72
2022-09-07T23:26:30.276Z,25.14
2022-09-07T23:29:00.741Z,24.77
2022-09-07T23:31:30.599Z,24.30
2022-09-07T23:33:59.140Z,24.47
2022-09-07T23:36:27.676Z,24.42
2022-09-07T23:38:58.283Z,24.41
2022-09-07T23:41:27.051Z,24.43
2022-09-07T23:43:56.150Z,24.73
2022-09-07T23:46:24.629Z,24.33
2022-09-07T23:48:53.113Z,24.43
2022-09-07T23:51:24.173Z,24.05
2022-09-07T23:53:53.435Z,23.61
2022-09-07T23:56:24.446Z,23.38
2022-09-07T23:58:53.025Z,22.83
